Time;durP1;ratioP1;P1;durP2;ratioP2;P2;SDS_P1;SDS_P2;PMS_P1;PMS_P2;Temp;Humidity;BMP_temperature;BMP_pressure;BME280_temperature;BME280_humidity;BME280_pressure;Samples;Min_cycle;Max_cycle;Signal;HPM_P1;HPM_P2
2023/08/27 00:01:26;;;;;;;9.55;8.18;;;13.70;99.90;;;;;;5135075;27;20107;-80
2023/08/27 00:03:51;;;;;;;8.15;7.35;;;13.70;99.90;;;;;;5136181;27;20039;-77
2023/08/27 00:06:17;;;;;;;7.28;6.57;;;13.70;99.90;;;;;;5136255;27;20468;-78
2023/08/27 00:08:43;;;;;;;8.10;7.50;;;13.70;99.90;;;;;;5136384;27;20478;-77
2023/08/27 00:11:08;;;;;;;10.05;7.93;;;13.70;99.90;;;;;;5136565;27;20460;-78
2023/08/27 00:13:34;;;;;;;8.85;8.00;;;13.70;99.90;;;;;;5139350;27;20479;-78
2023/08/27 00:16:00;;;;;;;8.82;7.70;;;13.70;99.90;;;;;;5140495;27;20050;-78
2023/08/27 00:18:26;;;;;;;8.43;7.30;;;13.70;99.90;;;;;;5087845;27;20471;-77
2023/08/27 00:20:52;;;;;;;7.53;6.82;;;13.70;99.90;;;;;;5103077;27;20051;-77
2023/08/27 00:23:18;;;;;;;7.93;7.22;;;13.70;99.90;;;;;;5136298;27;20043;-77
2023/08/27 00:25:44;;;;;;;8.05;6.32;;;13.60;99.90;;;;;;5136822;27;20050;-77
2023/08/27 00:28:13;;;;;;;6.88;6.28;;;13.60;99.90;;;;;;5135886;27;20057;-77
2023/08/27 00:30:39;;;;;;;6.72;6.13;;;13.50;99.90;;;;;;5135902;27;20100;-77
2023/08/27 00:33:06;;;;;;;6.82;6.15;;;13.50;99.90;;;;;;5136469;27;20062;-76
2023/08/27 00:35:32;;;;;;;8.13;6.78;;;13.50;99.90;;;;;;5135693;27;20074;-76
2023/08/27 00:37:58;;;;;;;6.28;5.78;;;13.60;99.90;;;;;;5135448;27;20039;-77
2023/08/27 00:40:28;;;;;;;6.20;5.38;;;13.50;99.90;;;;;;5117319;27;20126;-78
2023/08/27 00:42:55;;;;;;;6.05;5.53;;;13.50;99.90;;;;;;5117636;27;20051;-77
2023/08/27 00:45:21;;;;;;;6.90;6.15;;;13.40;99.90;;;;;;5117346;27;20085;-77
2023/08/27 00:47:47;;;;;;;10.02;6.60;;;13.40;99.90;;;;;;5134836;27;20379;-78
2023/08/27 00:50:14;;;;;;;7.45;6.63;;;13.40;99.90;;;;;;5135638;27;20147;-76
2023/08/27 00:52:42;;;;;;;7.05;6.45;;;13.40;99.90;;;;;;5135395;27;20039;-76
2023/08/27 00:55:09;;;;;;;8.65;7.75;;;13.40;99.90;;;;;;5134957;27;20043;-77
2023/08/27 00:57:38;;;;;;;9.15;6.85;;;13.40;99.90;;;;;;5135001;27;20043;-77
2023/08/27 01:00:09;;;;;;;7.38;6.78;;;13.40;99.90;;;;;;5134838;27;20043;-76
2023/08/27 01:02:37;;;;;;;8.32;6.97;;;13.50;99.90;;;;;;5134846;27;20062;-78
2023/08/27 01:05:05;;;;;;;7.20;6.50;;;13.50;99.90;;;;;;5135347;27;20061;-77
2023/08/27 01:07:58;;;;;;;6.05;5.45;;;13.40;99.90;;;;;;5135143;27;20053;-77
2023/08/27 01:10:40;;;;;;;6.20;5.70;;;13.40;99.90;;;;;;5116632;27;20104;-77
2023/08/27 01:13:20;;;;;;;5.90;5.18;;;13.30;99.90;;;;;;5135073;27;20039;-76
2023/08/27 01:15:54;;;;;;;5.57;5.07;;;13.30;99.90;;;;;;5116558;27;20099;-77
2023/08/27 01:18:21;;;;;;;5.40;4.90;;;13.30;99.90;;;;;;5134370;27;20057;-78
2023/08/27 01:20:48;;;;;;;6.35;4.80;;;13.20;99.90;;;;;;5134946;27;20092;-77
2023/08/27 01:23:14;;;;;;;5.63;5.07;;;13.20;99.90;;;;;;5134390;27;20507;-78
2023/08/27 01:25:45;;;;;;;6.28;5.35;;;13.20;99.90;;;;;;5082688;27;20043;-77
2023/08/27 01:28:22;;;;;;;5.80;5.30;;;13.20;99.90;;;;;;5134733;27;20047;-78
2023/08/27 01:30:59;;;;;;;4.60;4.20;;;13.20;99.90;;;;;;5134553;27;20395;-77
2023/08/27 01:33:28;;;;;;;5.28;4.78;;;13.20;99.90;;;;;;5135124;27;20043;-78
2023/08/27 01:35:59;;;;;;;5.35;4.95;;;13.20;99.90;;;;;;5134238;27;20043;-77
2023/08/27 01:38:25;;;;;;;5.68;5.18;;;13.10;99.90;;;;;;5134550;27;20050;-77
2023/08/27 01:40:52;;;;;;;6.00;5.50;;;13.20;99.90;;;;;;5134188;27;20047;-77
2023/08/27 01:43:18;;;;;;;6.38;5.88;;;13.20;99.90;;;;;;5134218;27;20043;-78
2023/08/27 01:45:44;;;;;;;5.72;5.18;;;13.10;99.90;;;;;;5134049;27;20106;-78
2023/08/27 01:48:10;;;;;;;5.03;4.63;;;13.10;99.90;;;;;;5133903;27;20529;-77
2023/08/27 01:50:36;;;;;;;6.30;5.70;;;13.20;99.90;;;;;;5134476;27;20062;-78
2023/08/27 01:53:02;;;;;;;6.40;5.80;;;13.10;99.90;;;;;;5134248;27;20467;-79
2023/08/27 01:55:28;;;;;;;5.85;5.35;;;13.10;99.90;;;;;;5134215;27;20076;-77
2023/08/27 01:57:54;;;;;;;5.95;5.28;;;13.00;99.90;;;;;;5116296;27;20079;-78
2023/08/27 02:00:20;;;;;;;5.32;4.82;;;13.00;99.90;;;;;;5134042;27;20079;-77
2023/08/27 02:02:47;;;;;;;5.53;5.03;;;13.00;99.90;;;;;;5116032;27;20058;-77
2023/08/27 02:05:13;;;;;;;5.78;5.18;;;13.00;99.90;;;;;;5116327;27;20472;-77
2023/08/27 02:07:40;;;;;;;5.47;5.00;;;13.10;99.90;;;;;;5116116;27;20049;-77
2023/08/27 02:10:07;;;;;;;5.05;4.45;;;13.10;99.90;;;;;;5134071;27;20051;-78
2023/08/27 02:12:34;;;;;;;5.80;5.30;;;13.20;99.90;;;;;;5115758;27;20063;-77
2023/08/27 02:14:59;;;;;;;5.55;5.03;;;13.20;99.90;;;;;;5133851;27;20051;-78
2023/08/27 02:17:25;;;;;;;6.20;5.38;;;13.10;99.90;;;;;;5133953;27;20054;-77
2023/08/27 02:19:51;;;;;;;6.38;5.40;;;13.10;99.90;;;;;;5133725;27;20047;-77
2023/08/27 02:22:17;;;;;;;5.95;5.43;;;13.10;99.90;;;;;;5134157;27;20043;-79
2023/08/27 02:24:42;;;;;;;8.05;4.97;;;13.00;99.90;;;;;;5133426;27;20061;-78
2023/08/27 02:27:08;;;;;;;6.32;5.82;;;13.00;99.90;;;;;;5133636;27;20047;-78
2023/08/27 02:29:35;;;;;;;5.75;4.43;;;13.00;99.90;;;;;;5133550;27;20039;-78
2023/08/27 02:32:02;;;;;;;6.60;6.00;;;12.90;99.90;;;;;;5134097;27;20107;-78
2023/08/27 02:34:28;;;;;;;6.75;5.85;;;12.90;99.90;;;;;;5133318;27;20050;-77
2023/08/27 02:36:54;;;;;;;6.55;5.95;;;12.80;99.90;;;;;;5134172;27;20126;-78
2023/08/27 02:39:19;;;;;;;5.82;5.22;;;12.80;99.90;;;;;;5133616;27;20466;-78
2023/08/27 02:41:45;;;;;;;6.03;5.43;;;12.90;99.90;;;;;;5133427;27;20095;-78
2023/08/27 02:44:11;;;;;;;5.35;4.85;;;12.80;99.90;;;;;;5133437;27;20051;-78
2023/08/27 02:46:36;;;;;;;5.40;4.95;;;12.80;99.90;;;;;;5133702;28;20463;-78
2023/08/27 02:49:02;;;;;;;5.35;4.93;;;12.80;99.90;;;;;;5115227;28;20353;-78
2023/08/27 02:51:27;;;;;;;5.50;5.00;;;12.70;99.90;;;;;;5134071;28;20050;-80
2023/08/27 02:53:53;;;;;;;6.18;5.57;;;12.70;99.90;;;;;;5133661;28;20485;-78
2023/08/27 02:56:19;;;;;;;5.82;5.32;;;12.70;99.90;;;;;;5115003;28;20536;-78
2023/08/27 02:58:48;;;;;;;5.00;4.60;;;12.70;99.90;;;;;;5133546;28;20088;-78
2023/08/27 03:01:20;;;;;;;9.02;5.65;;;12.70;99.90;;;;;;5135268;28;20095;-78
2023/08/27 03:03:46;;;;;;;7.00;6.28;;;12.70;99.90;;;;;;5135958;28;20476;-77
2023/08/27 03:06:12;;;;;;;6.22;5.63;;;12.70;99.90;;;;;;5136971;28;20080;-77
2023/08/27 03:08:38;;;;;;;6.10;5.43;;;12.80;99.90;;;;;;5136167;28;20083;-78
2023/08/27 03:11:04;;;;;;;6.97;6.30;;;12.70;99.90;;;;;;5133603;28;20100;-78
2023/08/27 03:13:29;;;;;;;6.70;5.97;;;12.80;99.90;;;;;;5133507;28;20043;-79
2023/08/27 03:15:55;;;;;;;7.07;6.38;;;12.80;99.90;;;;;;5133591;28;20047;-78
2023/08/27 03:18:21;;;;;;;6.18;5.68;;;12.70;99.90;;;;;;5133846;28;20055;-78
2023/08/27 03:20:47;;;;;;;7.00;6.35;;;12.70;99.90;;;;;;5133500;28;20043;-78
2023/08/27 03:23:12;;;;;;;7.53;6.82;;;12.70;99.90;;;;;;5133243;28;20122;-78
2023/08/27 03:25:38;;;;;;;6.93;5.95;;;12.70;99.90;;;;;;5133814;28;20505;-78
2023/08/27 03:28:04;;;;;;;7.35;6.57;;;12.70;99.90;;;;;;5133582;28;20051;-78
2023/08/27 03:30:30;;;;;;;7.63;6.90;;;12.70;99.90;;;;;;5115264;28;20039;-78
2023/08/27 03:32:55;;;;;;;7.35;6.75;;;12.70;99.90;;;;;;5133092;28;20067;-78
2023/08/27 03:35:21;;;;;;;8.05;6.40;;;12.70;99.90;;;;;;5135314;27;20082;-78
2023/08/27 03:37:47;;;;;;;7.18;6.47;;;12.70;99.90;;;;;;5137332;27;20047;-78
2023/08/27 03:40:12;;;;;;;7.85;6.40;;;12.70;99.90;;;;;;5136761;27;20201;-78
2023/08/27 03:42:38;;;;;;;8.15;7.45;;;12.80;99.90;;;;;;5118599;27;20100;-78
2023/08/27 03:45:04;;;;;;;8.43;7.63;;;12.80;99.90;;;;;;5136447;27;20506;-79
2023/08/27 03:47:30;;;;;;;7.40;6.70;;;12.80;99.90;;;;;;5136872;27;20055;-78
2023/08/27 03:49:56;;;;;;;8.23;7.45;;;12.90;99.90;;;;;;5119225;27;20054;-77
2023/08/27 03:52:21;;;;;;;7.10;6.40;;;12.90;99.90;;;;;;5137049;27;20139;-78
2023/08/27 03:54:47;;;;;;;9.05;8.15;;;12.90;99.90;;;;;;5136679;27;20031;-78
2023/08/27 03:57:13;;;;;;;8.50;7.80;;;13.00;99.90;;;;;;5136518;27;20059;-78
2023/08/27 03:59:38;;;;;;;11.38;9.10;;;13.00;99.90;;;;;;5137042;27;20039;-78
2023/08/27 04:02:04;;;;;;;11.32;8.43;;;13.10;99.90;;;;;;5136473;27;20417;-78
2023/08/27 04:04:32;;;;;;;10.07;9.07;;;13.10;99.90;;;;;;5136442;27;20039;-78
2023/08/27 04:06:58;;;;;;;10.40;9.35;;;13.20;99.90;;;;;;5136730;27;20096;-77
2023/08/27 04:09:24;;;;;;;10.35;9.35;;;13.20;99.90;;;;;;5136327;27;20043;-78
2023/08/27 04:11:50;;;;;;;8.45;7.53;;;13.30;99.90;;;;;;5136776;27;20504;-79
2023/08/27 04:14:16;;;;;;;9.85;8.85;;;13.30;99.90;;;;;;5135872;27;20035;-78
2023/08/27 04:16:41;;;;;;;10.15;8.13;;;13.30;99.90;;;;;;5135828;27;20142;-78
2023/08/27 04:19:07;;;;;;;7.75;6.93;;;13.30;99.90;;;;;;5117835;27;20122;-78
2023/08/27 04:21:33;;;;;;;8.52;7.55;;;13.30;99.90;;;;;;5136005;27;20221;-78
2023/08/27 04:23:58;;;;;;;11.77;7.18;;;13.20;99.90;;;;;;5136580;27;20053;-78
2023/08/27 04:26:24;;;;;;;8.38;7.43;;;13.20;99.90;;;;;;5135878;27;20043;-78
2023/08/27 04:28:50;;;;;;;9.23;8.32;;;13.10;99.90;;;;;;5136191;27;20039;-78
2023/08/27 04:31:16;;;;;;;11.10;8.15;;;13.00;99.90;;;;;;5117658;27;20047;-79
2023/08/27 04:33:43;;;;;;;8.75;7.95;;;13.00;99.90;;;;;;5135867;27;20138;-79
2023/08/27 04:36:09;;;;;;;8.10;6.90;;;12.90;99.90;;;;;;5136213;27;20062;-76
2023/08/27 04:38:34;;;;;;;7.55;6.85;;;12.90;99.90;;;;;;5117771;27;20065;-78
2023/08/27 04:41:00;;;;;;;8.48;7.63;;;12.90;99.90;;;;;;5135708;27;20039;-78
2023/08/27 04:43:26;;;;;;;7.93;7.10;;;12.90;99.90;;;;;;5117410;27;20043;-79
2023/08/27 04:45:53;;;;;;;9.52;8.52;;;12.90;99.90;;;;;;5135713;27;20039;-78
2023/08/27 04:48:19;;;;;;;10.30;9.25;;;12.90;99.90;;;;;;5135318;27;20108;-78
2023/08/27 04:50:48;;;;;;;9.23;8.43;;;12.90;99.90;;;;;;5135472;27;20047;-78
2023/08/27 04:53:14;;;;;;;8.98;7.72;;;12.90;99.90;;;;;;5135777;27;20054;-78
2023/08/27 04:55:40;;;;;;;7.28;6.53;;;12.90;99.90;;;;;;5135342;27;20087;-77
2023/08/27 04:58:08;;;;;;;9.10;7.95;;;12.90;99.90;;;;;;5135316;27;20047;-78
2023/08/27 05:00:34;;;;;;;9.00;7.88;;;12.90;99.90;;;;;;5135656;27;20050;-78
2023/08/27 05:03:02;;;;;;;11.20;8.50;;;13.00;99.90;;;;;;5116823;27;20486;-78
2023/08/27 05:05:28;;;;;;;9.23;8.43;;;13.00;99.90;;;;;;5135803;27;20131;-72
2023/08/27 05:07:54;;;;;;;8.15;7.45;;;13.00;99.90;;;;;;5116747;27;20075;-70
2023/08/27 05:10:20;;;;;;;8.40;7.70;;;13.00;99.90;;;;;;5099718;27;20047;-71
2023/08/27 05:12:46;;;;;;;8.00;7.25;;;13.00;99.90;;;;;;5134898;27;20070;-72
2023/08/27 05:15:12;;;;;;;9.80;8.80;;;13.00;99.90;;;;;;5135055;27;20035;-71
2023/08/27 05:17:37;;;;;;;8.88;7.97;;;13.00;99.90;;;;;;5116373;27;20519;-72
2023/08/27 05:20:04;;;;;;;8.18;7.35;;;13.10;99.90;;;;;;5116679;27;20497;-71
2023/08/27 05:22:30;;;;;;;10.13;8.63;;;13.10;99.90;;;;;;5117279;27;20507;-71
2023/08/27 05:24:55;;;;;;;9.15;7.40;;;13.10;99.90;;;;;;5135127;27;20051;-72
2023/08/27 05:27:21;;;;;;;8.32;7.53;;;13.10;99.90;;;;;;5134610;27;20477;-72
2023/08/27 05:29:47;;;;;;;11.20;8.95;;;13.20;99.90;;;;;;5134409;27;20133;-71
2023/08/27 05:32:12;;;;;;;8.45;7.65;;;13.20;99.90;;;;;;5134523;27;20051;-72
2023/08/27 05:34:38;;;;;;;7.82;7.03;;;13.30;99.90;;;;;;5134336;27;20039;-72
2023/08/27 05:37:04;;;;;;;8.25;7.55;;;13.30;99.90;;;;;;5116067;27;20066;-71
2023/08/27 05:39:29;;;;;;;11.95;8.57;;;13.40;99.90;;;;;;5116501;27;20039;-71
2023/08/27 05:41:55;;;;;;;10.93;8.23;;;13.60;99.90;;;;;;5134299;27;20039;-71
2023/08/27 05:44:21;;;;;;;9.82;8.93;;;13.70;99.90;;;;;;5134314;27;20091;-71
2023/08/27 05:46:47;;;;;;;8.57;7.78;;;13.60;99.90;;;;;;5134852;27;20047;-71
2023/08/27 05:49:12;;;;;;;8.77;7.88;;;13.80;99.90;;;;;;5116337;27;20468;-70
2023/08/27 05:51:38;;;;;;;10.77;7.88;;;14.00;99.90;;;;;;5099224;27;20423;-71
2023/08/27 05:54:04;;;;;;;9.32;8.32;;;14.20;99.90;;;;;;5134550;27;20039;-71
2023/08/27 05:56:30;;;;;;;8.50;7.30;;;14.30;99.90;;;;;;5134826;27;20035;-73
2023/08/27 05:58:57;;;;;;;9.80;8.20;;;14.50;99.90;;;;;;5133492;27;20050;-71
2023/08/27 06:01:23;;;;;;;8.27;7.47;;;14.60;99.90;;;;;;5134080;27;20136;-74
2023/08/27 06:03:49;;;;;;;8.50;7.75;;;14.80;99.90;;;;;;5133973;27;20057;-71
2023/08/27 06:06:15;;;;;;;9.50;7.35;;;14.90;99.90;;;;;;5134313;27;20100;-71
2023/08/27 06:08:40;;;;;;;8.32;7.38;;;15.00;99.90;;;;;;5115983;27;20055;-70
2023/08/27 06:11:06;;;;;;;8.85;6.95;;;15.10;99.90;;;;;;5134420;27;20518;-71
2023/08/27 06:13:32;;;;;;;8.18;7.47;;;15.10;99.90;;;;;;5133867;27;20447;-72
2023/08/27 06:15:57;;;;;;;7.53;6.93;;;15.20;99.90;;;;;;5133875;27;20051;-71
2023/08/27 06:18:23;;;;;;;8.02;7.22;;;15.20;99.90;;;;;;5134242;27;20090;-71
2023/08/27 06:20:49;;;;;;;8.40;7.00;;;15.10;99.90;;;;;;5133862;27;20092;-74
2023/08/27 06:23:16;;;;;;;7.88;7.18;;;15.10;99.90;;;;;;5134316;27;20081;-71
2023/08/27 06:25:41;;;;;;;8.40;7.60;;;15.20;99.90;;;;;;5134295;27;20051;-72
2023/08/27 06:28:07;;;;;;;7.72;7.00;;;15.10;99.90;;;;;;5134034;27;20431;-70
2023/08/27 06:30:34;;;;;;;7.80;6.22;;;15.00;99.90;;;;;;5133415;27;20070;-70
2023/08/27 06:33:00;;;;;;;9.20;7.03;;;15.00;99.90;;;;;;5115156;27;20086;-70
2023/08/27 06:35:26;;;;;;;7.90;7.18;;;14.90;99.90;;;;;;5133974;27;20039;-74
2023/08/27 06:37:51;;;;;;;7.72;7.10;;;14.90;99.90;;;;;;5133137;27;20496;-70
2023/08/27 06:40:17;;;;;;;8.13;7.28;;;14.90;99.90;;;;;;5133386;27;20051;-71
2023/08/27 06:42:43;;;;;;;7.78;6.55;;;14.80;99.90;;;;;;5133128;27;20507;-72
2023/08/27 06:45:12;;;;;;;9.73;8.30;;;14.80;99.90;;;;;;5115103;27;20092;-72
2023/08/27 06:47:38;;;;;;;9.15;6.88;;;14.70;99.90;;;;;;5114884;28;20039;-72
2023/08/27 06:50:04;;;;;;;8.02;7.25;;;14.70;99.90;;;;;;5133606;28;20043;-70
2023/08/27 06:52:34;;;;;;;12.55;8.13;;;14.70;99.90;;;;;;5133909;28;20506;-71
2023/08/27 06:55:00;;;;;;;8.27;7.13;;;14.70;99.90;;;;;;5134189;28;20043;-75
2023/08/27 06:57:26;;;;;;;9.63;7.15;;;14.70;99.90;;;;;;5116530;28;20478;-77
2023/08/27 06:59:52;;;;;;;7.25;6.47;;;14.60;99.90;;;;;;5133981;28;20039;-78
2023/08/27 07:02:18;;;;;;;9.80;6.63;;;14.60;99.90;;;;;;5133507;28;20130;-77
2023/08/27 07:04:43;;;;;;;8.43;6.97;;;14.60;99.90;;;;;;5133335;28;20151;-78
2023/08/27 07:07:09;;;;;;;8.60;6.22;;;14.60;99.90;;;;;;5133719;28;20464;-77
2023/08/27 07:09:35;;;;;;;10.15;5.57;;;14.70;99.90;;;;;;5134594;27;20047;-77
2023/08/27 07:12:02;;;;;;;7.07;6.03;;;14.70;99.90;;;;;;5137703;27;20050;-77
2023/08/27 07:14:27;;;;;;;7.68;6.97;;;14.70;99.90;;;;;;5137442;27;20050;-78
2023/08/27 07:16:53;;;;;;;8.00;6.15;;;14.80;99.90;;;;;;5136844;27;20137;-78
2023/08/27 07:19:20;;;;;;;6.55;5.78;;;14.80;99.90;;;;;;5137088;27;20058;-79
2023/08/27 07:21:45;;;;;;;6.60;5.25;;;14.80;99.90;;;;;;5137271;27;20051;-77
2023/08/27 07:24:13;;;;;;;6.57;5.82;;;14.80;99.90;;;;;;5137459;27;20045;-79
2023/08/27 07:26:39;;;;;;;5.82;5.25;;;14.80;99.90;;;;;;5119219;27;20516;-77
2023/08/27 07:29:05;;;;;;;5.43;4.93;;;14.80;99.90;;;;;;5118870;27;20047;-80
2023/08/27 07:31:31;;;;;;;5.05;4.60;;;14.80;99.90;;;;;;5119122;27;20042;-78
2023/08/27 07:33:57;;;;;;;7.32;4.72;;;14.80;99.90;;;;;;5137357;27;20039;-78
2023/08/27 07:36:23;;;;;;;6.43;4.72;;;14.80;99.90;;;;;;5136724;27;20047;-78
2023/08/27 07:38:49;;;;;;;8.60;4.28;;;14.80;99.90;;;;;;5136970;27;20104;-77
2023/08/27 07:41:14;;;;;;;4.28;3.88;;;14.80;99.90;;;;;;5136874;27;20039;-79
2023/08/27 07:43:40;;;;;;;5.72;3.80;;;14.80;99.90;;;;;;5136818;27;20035;-79
2023/08/27 07:46:06;;;;;;;3.88;3.40;;;14.80;99.90;;;;;;5136690;27;20047;-77
2023/08/27 07:48:32;;;;;;;4.65;3.45;;;14.80;99.90;;;;;;5136708;27;20047;-78
2023/08/27 07:50:58;;;;;;;5.75;3.70;;;14.80;99.90;;;;;;5136788;27;20054;-77
2023/08/27 07:53:24;;;;;;;4.63;3.45;;;14.90;99.90;;;;;;5136390;27;20114;-78
2023/08/27 07:55:50;;;;;;;4.43;3.38;;;15.00;99.90;;;;;;5118370;27;20079;-78
2023/08/27 07:58:16;;;;;;;6.15;4.07;;;15.20;99.90;;;;;;5136414;27;20043;-78
2023/08/27 08:00:42;;;;;;;4.72;3.35;;;15.50;99.90;;;;;;5136348;27;20043;-78
2023/08/27 08:03:07;;;;;;;4.15;3.13;;;15.90;99.90;;;;;;5136583;27;20043;-77
2023/08/27 08:05:33;;;;;;;4.90;3.30;;;16.10;99.90;;;;;;5117952;27;20172;-77
2023/08/27 08:07:59;;;;;;;3.55;2.88;;;16.40;99.90;;;;;;5136108;27;20100;-79
2023/08/27 08:10:24;;;;;;;4.78;3.20;;;17.90;99.90;;;;;;5136501;27;20050;-77
2023/08/27 08:12:50;;;;;;;2.40;2.30;;;19.40;99.90;;;;;;5136348;27;20047;-78
2023/08/27 08:15:16;;;;;;;3.33;1.85;;;20.70;99.90;;;;;;5137058;27;20122;-78
2023/08/27 08:17:43;;;;;;;3.72;2.05;;;21.50;99.90;;;;;;5135587;27;20480;-76
2023/08/27 08:20:09;;;;;;;4.32;2.13;;;22.00;99.90;;;;;;5135987;27;20050;-77
2023/08/27 08:22:35;;;;;;;4.35;2.00;;;22.50;99.90;;;;;;5134939;27;20070;-77
2023/08/27 08:25:01;;;;;;;2.33;1.70;;;22.80;99.90;;;;;;5135475;27;20078;-77
2023/08/27 08:27:26;;;;;;;3.03;2.30;;;23.20;99.90;;;;;;5136004;27;20054;-78
2023/08/27 08:29:53;;;;;;;4.53;2.20;;;23.60;99.90;;;;;;5117692;27;20035;-76
2023/08/27 08:32:19;;;;;;;4.95;2.10;;;23.70;99.90;;;;;;5135936;27;20047;-76
2023/08/27 08:34:44;;;;;;;1.75;1.65;;;24.10;99.90;;;;;;5135798;27;20043;-77
2023/08/27 08:37:10;;;;;;;2.17;1.88;;;24.10;99.90;;;;;;5135823;27;20050;-78
2023/08/27 08:39:36;;;;;;;1.52;1.40;;;24.10;99.90;;;;;;5136114;27;20047;-78
2023/08/27 08:43:02;;;;;;;3.05;1.65;;;24.40;99.90;;;;;;5136008;27;20047;-76
2023/08/27 08:45:52;;;;;;;1.55;1.45;;;24.90;99.90;;;;;;5052076;28;20143;-76
2023/08/27 08:48:22;;;;;;;2.67;2.00;;;24.90;99.90;;;;;;5132267;27;20062;-77
2023/08/27 08:50:52;;;;;;;3.42;1.95;;;25.00;99.90;;;;;;5135817;27;20084;-76
2023/08/27 08:53:19;;;;;;;3.17;2.15;;;25.00;99.90;;;;;;5135492;27;20047;-75
2023/08/27 08:55:50;;;;;;;4.60;2.55;;;25.60;99.90;;;;;;5135985;27;20078;-78
2023/08/27 08:58:18;;;;;;;4.57;2.25;;;25.40;99.90;;;;;;5135238;27;20047;-78
2023/08/27 09:00:45;;;;;;;2.55;2.13;;;25.50;99.90;;;;;;5135202;27;20055;-76
2023/08/27 09:03:11;;;;;;;2.78;2.28;;;25.90;99.90;;;;;;5135126;27;20039;-76
2023/08/27 09:05:38;;;;;;;3.67;2.15;;;25.90;99.90;;;;;;5135488;27;20125;-77
2023/08/27 09:08:05;;;;;;;3.95;2.08;;;26.00;99.90;;;;;;5135081;27;20050;-77
2023/08/27 09:10:31;;;;;;;2.88;2.40;;;25.90;99.90;;;;;;5135137;27;20043;-78
2023/08/27 09:13:01;;;;;;;2.30;1.90;;;25.50;99.90;;;;;;5135336;27;20570;-76
2023/08/27 09:15:27;;;;;;;2.00;1.83;;;25.90;99.90;;;;;;5116871;27;20108;-77
2023/08/27 09:17:53;;;;;;;2.05;1.83;;;25.60;99.90;;;;;;5135416;27;20058;-76
2023/08/27 09:20:18;;;;;;;3.08;1.95;;;25.90;99.90;;;;;;5117141;27;20047;-76
2023/08/27 09:22:45;;;;;;;3.13;1.75;;;26.20;99.90;;;;;;5134852;27;20419;-78
2023/08/27 09:25:10;;;;;;;2.03;1.58;;;26.20;99.90;;;;;;5116501;27;20054;-77
2023/08/27 09:27:36;;;;;;;3.50;1.77;;;25.70;99.90;;;;;;5135288;27;20039;-78
2023/08/27 09:30:06;;;;;;;2.83;1.17;;;25.90;99.90;;;;;;5116442;27;20387;-77
2023/08/27 09:32:32;;;;;;;2.15;1.27;;;26.10;99.90;;;;;;5116309;27;20051;-77
2023/08/27 09:35:05;;;;;;;1.40;1.30;;;26.40;99.90;;;;;;5116470;27;20058;-78
2023/08/27 09:37:42;;;;;;;1.58;1.30;;;26.10;99.90;;;;;;5134974;27;20122;-77
2023/08/27 09:40:13;;;;;;;2.17;1.30;;;25.70;98.30;;;;;;5134431;27;20124;-78
2023/08/27 09:42:39;;;;;;;3.30;1.27;;;25.50;95.60;;;;;;5134990;27;20171;-77
2023/08/27 09:45:06;;;;;;;1.17;1.05;;;25.90;99.90;;;;;;5134623;27;20841;-78
2023/08/27 09:47:39;;;;;;;2.97;1.30;;;26.50;99.90;;;;;;5116776;27;20051;-76
2023/08/27 09:50:15;;;;;;;2.17;1.58;;;26.60;99.90;;;;;;5116889;27;20086;-77
2023/08/27 09:52:42;;;;;;;1.50;1.30;;;26.60;97.40;;;;;;5134335;27;20051;-78
2023/08/27 09:55:16;;;;;;;1.35;1.25;;;26.80;99.90;;;;;;5116427;27;20050;-80
2023/08/27 09:57:53;;;;;;;1.20;1.10;;;26.80;98.50;;;;;;5134237;27;20102;-79
2023/08/27 10:00:21;;;;;;;1.60;1.50;;;26.70;98.70;;;;;;5134508;27;20039;-77
2023/08/27 10:02:51;;;;;;;1.40;1.27;;;26.80;99.30;;;;;;5134174;27;20043;-77
2023/08/27 10:05:17;;;;;;;3.03;1.42;;;26.70;99.10;;;;;;5134597;27;20043;-80
2023/08/27 10:07:56;;;;;;;1.20;1.10;;;26.60;98.40;;;;;;5134651;27;20429;-77
2023/08/27 10:10:22;;;;;;;1.73;1.60;;;26.20;94.40;;;;;;5133997;27;20047;-77
2023/08/27 10:12:48;;;;;;;1.33;1.17;;;26.30;97.70;;;;;;5134043;27;20058;-77
2023/08/27 10:15:16;;;;;;;0.93;0.88;;;26.00;95.00;;;;;;5133616;27;20353;-78
2023/08/27 10:17:42;;;;;;;1.23;0.90;;;26.30;97.40;;;;;;5133632;27;20090;-77
2023/08/27 10:20:10;;;;;;;2.25;1.25;;;26.60;97.50;;;;;;5133756;27;20086;-80
2023/08/27 10:22:37;;;;;;;2.10;1.35;;;26.80;97.40;;;;;;5115707;28;20039;-78
2023/08/27 10:25:04;;;;;;;1.67;1.15;;;26.90;97.00;;;;;;5115887;27;20043;-78
2023/08/27 10:27:30;;;;;;;3.33;1.58;;;27.50;97.50;;;;;;5134293;27;20043;-77
2023/08/27 10:29:58;;;;;;;2.70;1.17;;;26.80;96.10;;;;;;5133527;27;20039;-80
2023/08/27 10:32:23;;;;;;;1.40;1.30;;;26.30;96.60;;;;;;5133783;27;20065;-77
2023/08/27 10:34:50;;;;;;;1.42;1.33;;;26.20;96.80;;;;;;5133582;27;20464;-76
2023/08/27 10:37:20;;;;;;;1.80;1.27;;;25.70;96.70;;;;;;5135614;27;20043;-84
2023/08/27 10:39:48;;;;;;;1.73;1.60;;;25.60;96.80;;;;;;5136166;27;20050;-85
2023/08/27 10:42:33;;;;;;;1.90;1.70;;;26.50;96.10;;;;;;5141925;27;20054;-85
2023/08/27 10:45:26;;;;;;;2.65;2.15;;;26.80;93.50;;;;;;5141850;27;20039;-85
2023/08/27 10:48:21;;;;;;;2.78;1.80;;;26.20;94.30;;;;;;5121128;28;20070;-85
2023/08/27 10:50:54;;;;;;;3.10;1.90;;;25.30;94.60;;;;;;5139697;28;20093;-86
2023/08/27 10:53:22;;;;;;;1.52;1.40;;;24.90;95.70;;;;;;5115617;28;20047;-86
2023/08/27 10:55:51;;;;;;;3.63;1.58;;;24.20;96.80;;;;;;5115623;28;20462;-84
2023/08/27 10:58:25;;;;;;;2.08;1.58;;;23.70;97.20;;;;;;5115170;28;20043;-86
2023/08/27 11:00:59;;;;;;;2.88;1.52;;;23.60;95.90;;;;;;5133848;28;20047;-81
2023/08/27 11:03:26;;;;;;;1.75;1.65;;;23.60;95.90;;;;;;5098922;28;20444;-81
2023/08/27 11:06:15;;;;;;;1.80;1.70;;;23.40;96.50;;;;;;5133526;28;20075;-70
2023/08/27 11:08:41;;;;;;;2.35;2.10;;;23.20;95.10;;;;;;5104544;28;20055;-77
2023/08/27 11:11:13;;;;;;;2.55;2.03;;;22.80;96.30;;;;;;5115544;28;20043;-76
2023/08/27 11:13:44;;;;;;;2.15;1.85;;;22.60;96.00;;;;;;5133560;28;20043;-77
2023/08/27 11:16:15;;;;;;;2.97;1.92;;;22.40;96.80;;;;;;5134154;28;20043;-78
2023/08/27 11:18:48;;;;;;;3.35;1.95;;;22.30;96.40;;;;;;5133530;28;20150;-78
2023/08/27 11:21:46;;;;;;;2.80;1.95;;;22.10;97.10;;;;;;5133470;28;20054;-77
2023/08/27 11:24:11;;;;;;;2.97;2.03;;;21.70;97.20;;;;;;5133444;28;20047;-78
2023/08/27 11:26:39;;;;;;;1.92;1.80;;;21.50;97.90;;;;;;5133340;28;20476;-77
2023/08/27 11:29:08;;;;;;;1.98;1.75;;;21.40;98.40;;;;;;5133166;28;20399;-77
2023/08/27 11:31:33;;;;;;;2.03;1.80;;;21.10;98.50;;;;;;5114661;28;20055;-77
2023/08/27 11:34:02;;;;;;;2.65;2.28;;;21.00;99.20;;;;;;5133357;28;20046;-80
2023/08/27 11:36:29;;;;;;;2.58;2.38;;;20.80;99.50;;;;;;5114641;28;20039;-81
2023/08/27 11:39:05;;;;;;;4.03;3.72;;;20.80;99.90;;;;;;5115045;28;20136;-81
2023/08/27 11:41:39;;;;;;;2.72;2.53;;;20.90;99.90;;;;;;5116639;28;20062;-80
2023/08/27 11:44:06;;;;;;;2.92;2.63;;;21.20;99.90;;;;;;5133498;28;20055;-78
2023/08/27 11:46:33;;;;;;;3.38;1.60;;;21.60;99.90;;;;;;5081085;28;20471;-79
2023/08/27 11:48:59;;;;;;;1.80;1.70;;;21.60;98.10;;;;;;5133050;28;20523;-77
2023/08/27 11:51:25;;;;;;;1.60;1.50;;;21.70;97.90;;;;;;5132647;28;20050;-80
2023/08/27 11:53:52;;;;;;;1.92;1.80;;;21.80;98.40;;;;;;5132700;28;20040;-81
2023/08/27 11:56:18;;;;;;;3.95;2.33;;;21.60;98.20;;;;;;5134839;27;20156;-80
2023/08/27 11:58:48;;;;;;;2.53;2.03;;;21.60;98.40;;;;;;5136587;27;20054;-81
2023/08/27 12:01:15;;;;;;;2.40;2.20;;;21.50;98.80;;;;;;5136689;27;20055;-81
2023/08/27 12:03:41;;;;;;;5.18;2.58;;;21.30;98.70;;;;;;5136389;27;20040;-80
2023/08/27 12:06:19;;;;;;;3.53;2.22;;;21.20;99.30;;;;;;5136302;27;20047;-81
2023/08/27 12:08:50;;;;;;;2.53;2.33;;;20.90;99.20;;;;;;5136666;27;20054;-79
2023/08/27 12:11:17;;;;;;;4.13;2.92;;;20.80;99.70;;;;;;5136393;27;20039;-81
2023/08/27 12:13:47;;;;;;;3.42;3.13;;;20.70;99.90;;;;;;5136163;27;20043;-81
2023/08/27 12:16:16;;;;;;;3.20;2.90;;;20.70;99.90;;;;;;5135935;27;20573;-80
2023/08/27 12:18:46;;;;;;;5.45;4.05;;;20.60;99.90;;;;;;5136069;27;20055;-82
2023/08/27 12:21:13;;;;;;;5.10;3.60;;;20.50;99.90;;;;;;5136048;27;20088;-82
2023/08/27 12:23:38;;;;;;;4.07;3.78;;;20.30;99.90;;;;;;5118436;27;20035;-80
2023/08/27 12:26:04;;;;;;;3.95;3.65;;;20.20;99.90;;;;;;5135911;27;20062;-81
2023/08/27 12:28:33;;;;;;;4.25;3.72;;;20.20;99.90;;;;;;5117949;27;20041;-80
2023/08/27 12:30:59;;;;;;;4.43;3.20;;;20.10;99.90;;;;;;5136166;27;20046;-80
2023/08/27 12:33:41;;;;;;;4.80;3.55;;;19.60;99.90;;;;;;5135849;27;20118;-77
2023/08/27 12:36:07;;;;;;;4.18;3.00;;;19.40;99.90;;;;;;5136342;27;20051;-78
2023/08/27 12:38:34;;;;;;;2.58;2.38;;;19.10;99.90;;;;;;5135957;27;20105;-75
2023/08/27 12:41:01;;;;;;;2.35;2.00;;;18.90;99.90;;;;;;5135906;27;20090;-75
2023/08/27 12:43:27;;;;;;;2.60;2.40;;;18.60;99.90;;;;;;5135404;27;20110;-77
2023/08/27 12:45:53;;;;;;;2.95;1.90;;;18.60;99.90;;;;;;5136003;27;20104;-75
2023/08/27 12:48:19;;;;;;;1.98;1.45;;;18.50;99.90;;;;;;5135770;27;20054;-75